sensor_id;sensor_type;location;lat;lon;timestamp;P1;durP1;ratioP1;P2;durP2;ratioP2
23728;SDS011;12045;60.214;24.724;2023-11-21T00:00:05;0.40;;;0.40;;
23728;SDS011;12045;60.214;24.724;2023-11-21T00:02:40;1.17;;;1.07;;
23728;SDS011;12045;60.214;24.724;2023-11-21T00:05:10;1.73;;;0.97;;
23728;SDS011;12045;60.214;24.724;2023-11-21T00:07:41;1.03;;;0.97;;
23728;SDS011;12045;60.214;24.724;2023-11-21T00:10:11;1.20;;;0.87;;
23728;SDS011;12045;60.214;24.724;2023-11-21T00:12:41;0.40;;;0.40;;
23728;SDS011;12045;60.214;24.724;2023-11-21T00:15:09;1.90;;;1.43;;
23728;SDS011;12045;60.214;24.724;2023-11-21T00:17:41;2.90;;;1.37;;
23728;SDS011;12045;60.214;24.724;2023-11-21T00:20:10;3.53;;;1.13;;
23728;SDS011;12045;60.214;24.724;2023-11-21T00:22:40;0.43;;;0.43;;
23728;SDS011;12045;60.214;24.724;2023-11-21T00:25:10;1.30;;;1.03;;
23728;SDS011;12045;60.214;24.724;2023-11-21T00:27:42;1.80;;;1.20;;
23728;SDS011;12045;60.214;24.724;2023-11-21T00:30:10;2.73;;;1.40;;
23728;SDS011;12045;60.214;24.724;2023-11-21T00:32:38;1.30;;;1.10;;
23728;SDS011;12045;60.214;24.724;2023-11-21T00:35:07;1.33;;;1.10;;
23728;SDS011;12045;60.214;24.724;2023-11-21T00:37:35;2.47;;;1.00;;
23728;SDS011;12045;60.214;24.724;2023-11-21T00:40:04;1.07;;;0.97;;
23728;SDS011;12045;60.214;24.724;2023-11-21T00:42:33;0.57;;;0.57;;
23728;SDS011;12045;60.214;24.724;2023-11-21T00:45:00;1.17;;;1.00;;
23728;SDS011;12045;60.214;24.724;2023-11-21T00:47:29;0.97;;;0.83;;
23728;SDS011;12045;60.214;24.724;2023-11-21T00:49:57;1.00;;;0.90;;
23728;SDS011;12045;60.214;24.724;2023-11-21T00:52:25;1.60;;;1.37;;
23728;SDS011;12045;60.214;24.724;2023-11-21T00:54:53;1.10;;;0.97;;
23728;SDS011;12045;60.214;24.724;2023-11-21T00:57:21;1.63;;;1.03;;
23728;SDS011;12045;60.214;24.724;2023-11-21T00:59:49;0.80;;;0.80;;
23728;SDS011;12045;60.214;24.724;2023-11-21T01:02:18;1.90;;;1.23;;
23728;SDS011;12045;60.214;24.724;2023-11-21T01:04:47;3.00;;;1.40;;
23728;SDS011;12045;60.214;24.724;2023-11-21T01:07:16;1.60;;;1.37;;
23728;SDS011;12045;60.214;24.724;2023-11-21T01:09:47;0.63;;;0.63;;
23728;SDS011;12045;60.214;24.724;2023-11-21T01:12:16;0.97;;;0.73;;
23728;SDS011;12045;60.214;24.724;2023-11-21T01:14:44;0.67;;;0.67;;
23728;SDS011;12045;60.214;24.724;2023-11-21T01:17:15;0.50;;;0.50;;
23728;SDS011;12045;60.214;24.724;2023-11-21T01:19:43;0.77;;;0.77;;
23728;SDS011;12045;60.214;24.724;2023-11-21T01:22:12;0.57;;;0.50;;
23728;SDS011;12045;60.214;24.724;2023-11-21T01:24:41;1.20;;;1.10;;
23728;SDS011;12045;60.214;24.724;2023-11-21T01:27:10;2.23;;;1.23;;
23728;SDS011;12045;60.214;24.724;2023-11-21T01:29:39;1.03;;;0.60;;
23728;SDS011;12045;60.214;24.724;2023-11-21T01:32:07;0.73;;;0.73;;
23728;SDS011;12045;60.214;24.724;2023-11-21T01:34:35;1.00;;;0.90;;
23728;SDS011;12045;60.214;24.724;2023-11-21T01:37:04;2.90;;;1.10;;
23728;SDS011;12045;60.214;24.724;2023-11-21T01:39:33;0.77;;;0.63;;
23728;SDS011;12045;60.214;24.724;2023-11-21T01:42:01;0.60;;;0.60;;
23728;SDS011;12045;60.214;24.724;2023-11-21T01:44:30;1.80;;;0.60;;
23728;SDS011;12045;60.214;24.724;2023-11-21T01:46:58;0.40;;;0.40;;
23728;SDS011;12045;60.214;24.724;2023-11-21T01:49:32;0.37;;;0.37;;
23728;SDS011;12045;60.214;24.724;2023-11-21T01:52:00;0.30;;;0.30;;
23728;SDS011;12045;60.214;24.724;2023-11-21T01:54:30;0.50;;;0.50;;
23728;SDS011;12045;60.214;24.724;2023-11-21T01:56:59;0.63;;;0.63;;
23728;SDS011;12045;60.214;24.724;2023-11-21T01:59:36;1.03;;;0.70;;
23728;SDS011;12045;60.214;24.724;2023-11-21T02:02:06;1.03;;;0.77;;
23728;SDS011;12045;60.214;24.724;2023-11-21T02:04:35;0.50;;;0.50;;
23728;SDS011;12045;60.214;24.724;2023-11-21T02:07:03;0.70;;;0.60;;
23728;SDS011;12045;60.214;24.724;2023-11-21T02:09:32;0.50;;;0.50;;
23728;SDS011;12045;60.214;24.724;2023-11-21T02:12:01;1.70;;;1.10;;
23728;SDS011;12045;60.214;24.724;2023-11-21T02:14:30;0.77;;;0.77;;
23728;SDS011;12045;60.214;24.724;2023-11-21T02:16:58;0.50;;;0.50;;
23728;SDS011;12045;60.214;24.724;2023-11-21T02:19:29;0.50;;;0.40;;
23728;SDS011;12045;60.214;24.724;2023-11-21T02:21:57;0.60;;;0.40;;
23728;SDS011;12045;60.214;24.724;2023-11-21T02:24:27;0.47;;;0.47;;
23728;SDS011;12045;60.214;24.724;2023-11-21T02:26:56;0.83;;;0.70;;
23728;SDS011;12045;60.214;24.724;2023-11-21T02:29:25;0.57;;;0.43;;
23728;SDS011;12045;60.214;24.724;2023-11-21T02:31:57;0.77;;;0.60;;
23728;SDS011;12045;60.214;24.724;2023-11-21T02:34:25;1.03;;;0.40;;
23728;SDS011;12045;60.214;24.724;2023-11-21T02:36:53;0.53;;;0.53;;
23728;SDS011;12045;60.214;24.724;2023-11-21T02:39:21;2.33;;;0.77;;
23728;SDS011;12045;60.214;24.724;2023-11-21T02:41:52;0.60;;;0.60;;
23728;SDS011;12045;60.214;24.724;2023-11-21T02:44:20;1.33;;;1.20;;
23728;SDS011;12045;60.214;24.724;2023-11-21T02:46:48;3.90;;;0.80;;
23728;SDS011;12045;60.214;24.724;2023-11-21T02:49:17;0.70;;;0.70;;
23728;SDS011;12045;60.214;24.724;2023-11-21T02:51:44;0.30;;;0.30;;
23728;SDS011;12045;60.214;24.724;2023-11-21T02:54:13;1.33;;;0.70;;
23728;SDS011;12045;60.214;24.724;2023-11-21T02:56:44;1.07;;;0.97;;
23728;SDS011;12045;60.214;24.724;2023-11-21T02:59:12;0.40;;;0.40;;
23728;SDS011;12045;60.214;24.724;2023-11-21T03:01:39;0.47;;;0.47;;
23728;SDS011;12045;60.214;24.724;2023-11-21T03:04:08;0.67;;;0.67;;
23728;SDS011;12045;60.214;24.724;2023-11-21T03:06:38;0.97;;;0.77;;
23728;SDS011;12045;60.214;24.724;2023-11-21T03:09:06;1.10;;;0.80;;
23728;SDS011;12045;60.214;24.724;2023-11-21T03:11:34;0.50;;;0.50;;
23728;SDS011;12045;60.214;24.724;2023-11-21T03:14:01;0.53;;;0.53;;
23728;SDS011;12045;60.214;24.724;2023-11-21T03:16:28;0.90;;;0.80;;
23728;SDS011;12045;60.214;24.724;2023-11-21T03:18:56;0.77;;;0.77;;
23728;SDS011;12045;60.214;24.724;2023-11-21T03:21:24;0.57;;;0.57;;
23728;SDS011;12045;60.214;24.724;2023-11-21T03:23:55;2.20;;;1.00;;
23728;SDS011;12045;60.214;24.724;2023-11-21T03:26:23;3.30;;;1.17;;
23728;SDS011;12045;60.214;24.724;2023-11-21T03:28:52;0.43;;;0.40;;
23728;SDS011;12045;60.214;24.724;2023-11-21T03:31:20;0.80;;;0.80;;
23728;SDS011;12045;60.214;24.724;2023-11-21T03:33:49;0.60;;;0.60;;
23728;SDS011;12045;60.214;24.724;2023-11-21T03:36:16;1.00;;;0.90;;
23728;SDS011;12045;60.214;24.724;2023-11-21T03:38:45;1.30;;;0.83;;
23728;SDS011;12045;60.214;24.724;2023-11-21T03:41:13;0.80;;;0.80;;
23728;SDS011;12045;60.214;24.724;2023-11-21T03:43:41;0.80;;;0.70;;
23728;SDS011;12045;60.214;24.724;2023-11-21T03:46:09;2.30;;;1.20;;
23728;SDS011;12045;60.214;24.724;2023-11-21T03:48:38;2.07;;;1.73;;
23728;SDS011;12045;60.214;24.724;2023-11-21T03:51:06;1.10;;;0.87;;
23728;SDS011;12045;60.214;24.724;2023-11-21T03:53:35;4.70;;;1.43;;
23728;SDS011;12045;60.214;24.724;2023-11-21T03:56:03;0.40;;;0.40;;
23728;SDS011;12045;60.214;24.724;2023-11-21T03:58:31;0.93;;;0.90;;
23728;SDS011;12045;60.214;24.724;2023-11-21T04:00:59;0.50;;;0.50;;
23728;SDS011;12045;60.214;24.724;2023-11-21T04:03:28;1.03;;;0.77;;
23728;SDS011;12045;60.214;24.724;2023-11-21T04:05:56;3.30;;;1.30;;
23728;SDS011;12045;60.214;24.724;2023-11-21T04:08:24;3.10;;;1.83;;
23728;SDS011;12045;60.214;24.724;2023-11-21T04:10:53;3.67;;;1.63;;
23728;SDS011;12045;60.214;24.724;2023-11-21T04:13:21;0.97;;;0.97;;
23728;SDS011;12045;60.214;24.724;2023-11-21T04:15:49;1.87;;;1.17;;
23728;SDS011;12045;60.214;24.724;2023-11-21T04:18:18;2.07;;;1.47;;
23728;SDS011;12045;60.214;24.724;2023-11-21T04:20:48;1.40;;;1.13;;
23728;SDS011;12045;60.214;24.724;2023-11-21T04:23:16;0.53;;;0.53;;
23728;SDS011;12045;60.214;24.724;2023-11-21T04:25:44;4.20;;;1.63;;
23728;SDS011;12045;60.214;24.724;2023-11-21T04:28:13;5.87;;;2.87;;
23728;SDS011;12045;60.214;24.724;2023-11-21T04:30:42;6.60;;;3.10;;
23728;SDS011;12045;60.214;24.724;2023-11-21T04:33:10;6.30;;;2.20;;
23728;SDS011;12045;60.214;24.724;2023-11-21T04:35:41;4.00;;;2.33;;
23728;SDS011;12045;60.214;24.724;2023-11-21T04:38:10;1.27;;;1.10;;
23728;SDS011;12045;60.214;24.724;2023-11-21T04:40:38;6.07;;;3.00;;
23728;SDS011;12045;60.214;24.724;2023-11-21T04:43:06;6.53;;;2.97;;
23728;SDS011;12045;60.214;24.724;2023-11-21T04:45:35;3.87;;;2.43;;
23728;SDS011;12045;60.214;24.724;2023-11-21T04:48:03;5.23;;;2.33;;
23728;SDS011;12045;60.214;24.724;2023-11-21T04:50:31;6.90;;;2.90;;
23728;SDS011;12045;60.214;24.724;2023-11-21T04:53:00;9.00;;;3.60;;
23728;SDS011;12045;60.214;24.724;2023-11-21T04:55:28;6.73;;;3.30;;
23728;SDS011;12045;60.214;24.724;2023-11-21T04:57:57;5.97;;;3.37;;
23728;SDS011;12045;60.214;24.724;2023-11-21T05:00:24;11.80;;;3.67;;
23728;SDS011;12045;60.214;24.724;2023-11-21T05:02:53;5.67;;;2.47;;
23728;SDS011;12045;60.214;24.724;2023-11-21T05:05:22;8.40;;;3.70;;
23728;SDS011;12045;60.214;24.724;2023-11-21T05:07:50;10.67;;;4.90;;
23728;SDS011;12045;60.214;24.724;2023-11-21T05:10:20;9.13;;;3.77;;
23728;SDS011;12045;60.214;24.724;2023-11-21T05:12:52;11.07;;;3.80;;
23728;SDS011;12045;60.214;24.724;2023-11-21T05:15:22;5.37;;;3.23;;
23728;SDS011;12045;60.214;24.724;2023-11-21T05:17:53;6.27;;;3.17;;
23728;SDS011;12045;60.214;24.724;2023-11-21T05:20:20;7.20;;;3.97;;
23728;SDS011;12045;60.214;24.724;2023-11-21T05:22:49;4.67;;;2.67;;
23728;SDS011;12045;60.214;24.724;2023-11-21T05:25:17;9.67;;;4.37;;
23728;SDS011;12045;60.214;24.724;2023-11-21T05:27:47;6.77;;;3.83;;
23728;SDS011;12045;60.214;24.724;2023-11-21T05:30:16;9.10;;;4.20;;
23728;SDS011;12045;60.214;24.724;2023-11-21T05:32:46;6.40;;;2.53;;
23728;SDS011;12045;60.214;24.724;2023-11-21T05:35:17;7.47;;;3.80;;
23728;SDS011;12045;60.214;24.724;2023-11-21T05:37:45;7.23;;;4.03;;
23728;SDS011;12045;60.214;24.724;2023-11-21T05:40:14;7.70;;;4.50;;
23728;SDS011;12045;60.214;24.724;2023-11-21T05:42:44;8.73;;;4.60;;
23728;SDS011;12045;60.214;24.724;2023-11-21T05:45:14;10.40;;;4.60;;
23728;SDS011;12045;60.214;24.724;2023-11-21T05:47:43;9.67;;;3.90;;
23728;SDS011;12045;60.214;24.724;2023-11-21T05:50:15;7.97;;;3.47;;
23728;SDS011;12045;60.214;24.724;2023-11-21T05:52:44;12.17;;;4.67;;
23728;SDS011;12045;60.214;24.724;2023-11-21T05:55:14;8.77;;;4.10;;
23728;SDS011;12045;60.214;24.724;2023-11-21T05:57:43;9.07;;;4.00;;
23728;SDS011;12045;60.214;24.724;2023-11-21T06:00:12;6.93;;;3.77;;
23728;SDS011;12045;60.214;24.724;2023-11-21T06:03:00;5.27;;;3.50;;
23728;SDS011;12045;60.214;24.724;2023-11-21T06:05:28;14.23;;;5.27;;
23728;SDS011;12045;60.214;24.724;2023-11-21T06:07:59;10.50;;;5.00;;
23728;SDS011;12045;60.214;24.724;2023-11-21T06:10:29;10.10;;;4.63;;
23728;SDS011;12045;60.214;24.724;2023-11-21T06:12:57;8.30;;;4.03;;
23728;SDS011;12045;60.214;24.724;2023-11-21T06:15:30;7.73;;;4.33;;
23728;SDS011;12045;60.214;24.724;2023-11-21T06:17:57;9.13;;;4.60;;
23728;SDS011;12045;60.214;24.724;2023-11-21T06:20:25;5.43;;;2.40;;
23728;SDS011;12045;60.214;24.724;2023-11-21T06:22:55;4.80;;;3.73;;
23728;SDS011;12045;60.214;24.724;2023-11-21T06:25:24;9.20;;;4.60;;
23728;SDS011;12045;60.214;24.724;2023-11-21T06:27:51;8.07;;;3.83;;
23728;SDS011;12045;60.214;24.724;2023-11-21T06:30:20;8.00;;;4.37;;
23728;SDS011;12045;60.214;24.724;2023-11-21T06:32:49;6.67;;;3.77;;
23728;SDS011;12045;60.214;24.724;2023-11-21T06:35:19;7.87;;;3.83;;
23728;SDS011;12045;60.214;24.724;2023-11-21T06:37:48;9.40;;;4.37;;
23728;SDS011;12045;60.214;24.724;2023-11-21T06:40:17;9.03;;;4.60;;
23728;SDS011;12045;60.214;24.724;2023-11-21T06:42:47;8.13;;;3.90;;
23728;SDS011;12045;60.214;24.724;2023-11-21T06:45:15;7.60;;;3.73;;
23728;SDS011;12045;60.214;24.724;2023-11-21T06:47:44;8.17;;;4.13;;
23728;SDS011;12045;60.214;24.724;2023-11-21T06:50:14;9.27;;;3.97;;
23728;SDS011;12045;60.214;24.724;2023-11-21T06:52:41;9.77;;;4.73;;
23728;SDS011;12045;60.214;24.724;2023-11-21T06:55:11;7.67;;;3.07;;
23728;SDS011;12045;60.214;24.724;2023-11-21T06:57:39;11.13;;;4.07;;
23728;SDS011;12045;60.214;24.724;2023-11-21T07:00:07;6.73;;;3.80;;
23728;SDS011;12045;60.214;24.724;2023-11-21T07:02:37;9.70;;;4.03;;
23728;SDS011;12045;60.214;24.724;2023-11-21T07:05:05;9.00;;;4.00;;
23728;SDS011;12045;60.214;24.724;2023-11-21T07:07:36;8.97;;;4.20;;
23728;SDS011;12045;60.214;24.724;2023-11-21T07:10:05;8.37;;;3.90;;
23728;SDS011;12045;60.214;24.724;2023-11-21T07:12:33;4.93;;;2.87;;
23728;SDS011;12045;60.214;24.724;2023-11-21T07:15:04;7.53;;;3.43;;
23728;SDS011;12045;60.214;24.724;2023-11-21T07:17:35;5.53;;;3.10;;
23728;SDS011;12045;60.214;24.724;2023-11-21T07:20:07;6.90;;;3.17;;
23728;SDS011;12045;60.214;24.724;2023-11-21T07:22:38;8.03;;;4.13;;
23728;SDS011;12045;60.214;24.724;2023-11-21T07:25:07;6.43;;;2.97;;
23728;SDS011;12045;60.214;24.724;2023-11-21T07:27:36;7.27;;;3.77;;
23728;SDS011;12045;60.214;24.724;2023-11-21T07:30:05;7.43;;;3.43;;
23728;SDS011;12045;60.214;24.724;2023-11-21T07:32:39;6.57;;;3.40;;
23728;SDS011;12045;60.214;24.724;2023-11-21T07:35:07;4.57;;;2.80;;
23728;SDS011;12045;60.214;24.724;2023-11-21T07:37:37;5.40;;;2.47;;
23728;SDS011;12045;60.214;24.724;2023-11-21T07:40:05;5.10;;;3.17;;
23728;SDS011;12045;60.214;24.724;2023-11-21T07:42:36;3.47;;;1.83;;
23728;SDS011;12045;60.214;24.724;2023-11-21T07:45:05;7.77;;;3.67;;
23728;SDS011;12045;60.214;24.724;2023-11-21T07:47:34;5.57;;;2.60;;
23728;SDS011;12045;60.214;24.724;2023-11-21T07:50:03;6.33;;;2.70;;
23728;SDS011;12045;60.214;24.724;2023-11-21T07:52:33;7.37;;;2.90;;
23728;SDS011;12045;60.214;24.724;2023-11-21T07:55:00;2.77;;;1.70;;
23728;SDS011;12045;60.214;24.724;2023-11-21T07:57:29;6.33;;;2.63;;
23728;SDS011;12045;60.214;24.724;2023-11-21T07:59:58;5.17;;;2.53;;
23728;SDS011;12045;60.214;24.724;2023-11-21T08:02:26;5.83;;;2.97;;
23728;SDS011;12045;60.214;24.724;2023-11-21T08:04:54;5.30;;;2.80;;
23728;SDS011;12045;60.214;24.724;2023-11-21T08:07:24;8.20;;;3.33;;
23728;SDS011;12045;60.214;24.724;2023-11-21T08:09:53;4.73;;;2.37;;
23728;SDS011;12045;60.214;24.724;2023-11-21T08:12:21;6.87;;;3.50;;
23728;SDS011;12045;60.214;24.724;2023-11-21T08:14:49;9.50;;;3.37;;
23728;SDS011;12045;60.214;24.724;2023-11-21T08:17:18;3.27;;;1.63;;
23728;SDS011;12045;60.214;24.724;2023-11-21T08:19:48;6.07;;;2.77;;
23728;SDS011;12045;60.214;24.724;2023-11-21T08:22:16;2.93;;;2.03;;
23728;SDS011;12045;60.214;24.724;2023-11-21T08:24:45;5.20;;;3.00;;
23728;SDS011;12045;60.214;24.724;2023-11-21T08:27:15;6.33;;;3.23;;
23728;SDS011;12045;60.214;24.724;2023-11-21T08:29:44;4.90;;;2.63;;
23728;SDS011;12045;60.214;24.724;2023-11-21T08:32:12;6.07;;;3.20;;
23728;SDS011;12045;60.214;24.724;2023-11-21T08:34:41;5.53;;;3.30;;
23728;SDS011;12045;60.214;24.724;2023-11-21T08:37:13;3.83;;;2.10;;
23728;SDS011;12045;60.214;24.724;2023-11-21T08:39:44;5.73;;;2.77;;
23728;SDS011;12045;60.214;24.724;2023-11-21T08:42:13;5.13;;;2.73;;
23728;SDS011;12045;60.214;24.724;2023-11-21T08:44:41;1.67;;;1.57;;
23728;SDS011;12045;60.214;24.724;2023-11-21T08:47:08;7.33;;;3.23;;
23728;SDS011;12045;60.214;24.724;2023-11-21T08:49:36;5.80;;;2.67;;
23728;SDS011;12045;60.214;24.724;2023-11-21T08:52:10;7.70;;;3.30;;
23728;SDS011;12045;60.214;24.724;2023-11-21T08:54:40;4.47;;;2.10;;
23728;SDS011;12045;60.214;24.724;2023-11-21T08:57:09;7.53;;;2.67;;
23728;SDS011;12045;60.214;24.724;2023-11-21T08:59:37;8.70;;;3.13;;
23728;SDS011;12045;60.214;24.724;2023-11-21T09:02:04;8.27;;;3.10;;
23728;SDS011;12045;60.214;24.724;2023-11-21T09:04:33;3.93;;;2.07;;
23728;SDS011;12045;60.214;24.724;2023-11-21T09:07:01;7.20;;;2.70;;
23728;SDS011;12045;60.214;24.724;2023-11-21T09:09:28;4.70;;;2.50;;
23728;SDS011;12045;60.214;24.724;2023-11-21T09:11:57;4.43;;;2.27;;
23728;SDS011;12045;60.214;24.724;2023-11-21T09:14:25;5.93;;;2.50;;
23728;SDS011;12045;60.214;24.724;2023-11-21T09:16:59;5.20;;;2.33;;
23728;SDS011;12045;60.214;24.724;2023-11-21T09:19:38;4.47;;;2.60;;
23728;SDS011;12045;60.214;24.724;2023-11-21T09:22:08;4.57;;;2.50;;
23728;SDS011;12045;60.214;24.724;2023-11-21T09:24:36;5.67;;;3.00;;
23728;SDS011;12045;60.214;24.724;2023-11-21T09:27:06;4.50;;;2.63;;
23728;SDS011;12045;60.214;24.724;2023-11-21T09:29:34;3.20;;;2.07;;
23728;SDS011;12045;60.214;24.724;2023-11-21T09:32:05;8.40;;;2.90;;
23728;SDS011;12045;60.214;24.724;2023-11-21T09:34:37;5.97;;;2.87;;
23728;SDS011;12045;60.214;24.724;2023-11-21T09:37:06;3.40;;;2.30;;
23728;SDS011;12045;60.214;24.724;2023-11-21T09:39:35;6.90;;;2.97;;
23728;SDS011;12045;60.214;24.724;2023-11-21T09:42:12;7.50;;;3.00;;
23728;SDS011;12045;60.214;24.724;2023-11-21T09:47:27;5.83;;;3.13;;
23728;SDS011;12045;60.214;24.724;2023-11-21T09:49:57;7.80;;;2.97;;
23728;SDS011;12045;60.214;24.724;2023-11-21T09:52:30;5.93;;;2.93;;
23728;SDS011;12045;60.214;24.724;2023-11-21T09:55:05;6.73;;;2.80;;
23728;SDS011;12045;60.214;24.724;2023-11-21T09:57:33;6.60;;;2.63;;
23728;SDS011;12045;60.214;24.724;2023-11-21T10:00:02;10.03;;;3.20;;
23728;SDS011;12045;60.214;24.724;2023-11-21T10:02:32;4.33;;;2.50;;
23728;SDS011;12045;60.214;24.724;2023-11-21T10:05:04;11.20;;;3.40;;
23728;SDS011;12045;60.214;24.724;2023-11-21T10:07:32;6.07;;;2.43;;
23728;SDS011;12045;60.214;24.724;2023-11-21T10:10:03;14.70;;;3.50;;
23728;SDS011;12045;60.214;24.724;2023-11-21T10:12:35;5.13;;;2.47;;
23728;SDS011;12045;60.214;24.724;2023-11-21T10:15:07;1.87;;;1.50;;
23728;SDS011;12045;60.214;24.724;2023-11-21T10:17:39;3.90;;;1.97;;
23728;SDS011;12045;60.214;24.724;2023-11-21T10:20:12;6.57;;;3.37;;
23728;SDS011;12045;60.214;24.724;2023-11-21T10:22:41;5.37;;;2.73;;
23728;SDS011;12045;60.214;24.724;2023-11-21T10:25:10;4.83;;;2.37;;
23728;SDS011;12045;60.214;24.724;2023-11-21T10:27:38;4.00;;;2.47;;
23728;SDS011;12045;60.214;24.724;2023-11-21T10:30:07;6.40;;;3.03;;
23728;SDS011;12045;60.214;24.724;2023-11-21T10:32:39;5.60;;;2.83;;
23728;SDS011;12045;60.214;24.724;2023-11-21T10:35:08;5.00;;;2.87;;
23728;SDS011;12045;60.214;24.724;2023-11-21T10:37:59;4.23;;;2.20;;
23728;SDS011;12045;60.214;24.724;2023-11-21T10:40:30;4.17;;;2.30;;
23728;SDS011;12045;60.214;24.724;2023-11-21T10:43:17;5.47;;;3.17;;
23728;SDS011;12045;60.214;24.724;2023-11-21T10:45:46;6.70;;;2.53;;
23728;SDS011;12045;60.214;24.724;2023-11-21T10:48:15;5.47;;;2.73;;
23728;SDS011;12045;60.214;24.724;2023-11-21T10:50:47;3.07;;;2.13;;
23728;SDS011;12045;60.214;24.724;2023-11-21T10:53:18;4.90;;;2.40;;
23728;SDS011;12045;60.214;24.724;2023-11-21T10:55:47;6.07;;;2.80;;
23728;SDS011;12045;60.214;24.724;2023-11-21T10:58:14;4.70;;;2.60;;
23728;SDS011;12045;60.214;24.724;2023-11-21T11:00:45;4.47;;;2.50;;
23728;SDS011;12045;60.214;24.724;2023-11-21T11:03:13;7.10;;;3.17;;
23728;SDS011;12045;60.214;24.724;2023-11-21T11:05:43;9.73;;;2.17;;
23728;SDS011;12045;60.214;24.724;2023-11-21T11:08:20;4.60;;;2.30;;
23728;SDS011;12045;60.214;24.724;2023-11-21T11:10:54;3.50;;;1.97;;
23728;SDS011;12045;60.214;24.724;2023-11-21T11:13:25;4.93;;;2.70;;
23728;SDS011;12045;60.214;24.724;2023-11-21T11:15:57;4.93;;;3.10;;
23728;SDS011;12045;60.214;24.724;2023-11-21T11:18:29;2.93;;;1.83;;
23728;SDS011;12045;60.214;24.724;2023-11-21T11:21:42;4.93;;;2.70;;
23728;SDS011;12045;60.214;24.724;2023-11-21T11:35:06;2.63;;;1.67;;
23728;SDS011;12045;60.214;24.724;2023-11-21T11:37:44;4.17;;;2.40;;
23728;SDS011;12045;60.214;24.724;2023-11-21T11:40:12;4.30;;;1.77;;
23728;SDS011;12045;60.214;24.724;2023-11-21T11:42:54;5.20;;;2.47;;
23728;SDS011;12045;60.214;24.724;2023-11-21T11:45:33;2.03;;;1.30;;
23728;SDS011;12045;60.214;24.724;2023-11-21T11:48:05;4.03;;;2.20;;
23728;SDS011;12045;60.214;24.724;2023-11-21T11:50:34;3.37;;;2.33;;
23728;SDS011;12045;60.214;24.724;2023-11-21T11:53:14;4.63;;;2.23;;
23728;SDS011;12045;60.214;24.724;2023-11-21T11:55:46;2.67;;;1.77;;
23728;SDS011;12045;60.214;24.724;2023-11-21T11:58:14;8.50;;;4.70;;
23728;SDS011;12045;60.214;24.724;2023-11-21T12:00:44;7.83;;;4.50;;
23728;SDS011;12045;60.214;24.724;2023-11-21T12:03:16;10.17;;;5.07;;
23728;SDS011;12045;60.214;24.724;2023-11-21T12:05:46;6.47;;;2.60;;
23728;SDS011;12045;60.214;24.724;2023-11-21T12:08:14;6.33;;;2.67;;
23728;SDS011;12045;60.214;24.724;2023-11-21T12:10:43;1.83;;;1.10;;
23728;SDS011;12045;60.214;24.724;2023-11-21T12:13:11;5.43;;;2.50;;
23728;SDS011;12045;60.214;24.724;2023-11-21T12:15:42;2.90;;;1.20;;
23728;SDS011;12045;60.214;24.724;2023-11-21T12:18:13;5.30;;;2.07;;
23728;SDS011;12045;60.214;24.724;2023-11-21T12:20:45;4.33;;;2.43;;
23728;SDS011;12045;60.214;24.724;2023-11-21T12:23:16;5.57;;;2.00;;
23728;SDS011;12045;60.214;24.724;2023-11-21T12:25:45;4.80;;;2.40;;
23728;SDS011;12045;60.214;24.724;2023-11-21T12:28:13;4.60;;;2.73;;
23728;SDS011;12045;60.214;24.724;2023-11-21T12:30:41;7.73;;;2.67;;
23728;SDS011;12045;60.214;24.724;2023-11-21T12:33:13;2.17;;;1.57;;
23728;SDS011;12045;60.214;24.724;2023-11-21T12:35:44;9.07;;;2.23;;
23728;SDS011;12045;60.214;24.724;2023-11-21T12:38:12;3.53;;;2.20;;
23728;SDS011;12045;60.214;24.724;2023-11-21T12:40:40;10.47;;;5.47;;
23728;SDS011;12045;60.214;24.724;2023-11-21T12:43:08;7.33;;;3.17;;
23728;SDS011;12045;60.214;24.724;2023-11-21T12:45:36;3.47;;;2.10;;
23728;SDS011;12045;60.214;24.724;2023-11-21T12:48:05;6.47;;;2.23;;
23728;SDS011;12045;60.214;24.724;2023-11-21T12:50:41;3.27;;;2.00;;
23728;SDS011;12045;60.214;24.724;2023-11-21T12:53:11;2.57;;;1.57;;
23728;SDS011;12045;60.214;24.724;2023-11-21T12:55:41;4.63;;;2.50;;
23728;SDS011;12045;60.214;24.724;2023-11-21T12:58:17;2.77;;;1.57;;
23728;SDS011;12045;60.214;24.724;2023-11-21T13:00:48;2.33;;;1.40;;
23728;SDS011;12045;60.214;24.724;2023-11-21T13:03:17;1.77;;;1.10;;
23728;SDS011;12045;60.214;24.724;2023-11-21T13:05:53;1.83;;;1.30;;
23728;SDS011;12045;60.214;24.724;2023-11-21T13:08:24;5.87;;;1.97;;
23728;SDS011;12045;60.214;24.724;2023-11-21T13:10:53;3.47;;;1.43;;
23728;SDS011;12045;60.214;24.724;2023-11-21T13:13:25;2.50;;;1.37;;
23728;SDS011;12045;60.214;24.724;2023-11-21T13:15:56;2.87;;;2.10;;
23728;SDS011;12045;60.214;24.724;2023-11-21T13:18:32;3.17;;;1.53;;
23728;SDS011;12045;60.214;24.724;2023-11-21T13:21:01;5.10;;;1.87;;
23728;SDS011;12045;60.214;24.724;2023-11-21T13:23:45;2.97;;;1.27;;
23728;SDS011;12045;60.214;24.724;2023-11-21T13:26:16;4.27;;;2.10;;
23728;SDS011;12045;60.214;24.724;2023-11-21T13:28:49;3.37;;;1.80;;
23728;SDS011;12045;60.214;24.724;2023-11-21T13:31:17;2.87;;;1.87;;
23728;SDS011;12045;60.214;24.724;2023-11-21T13:33:50;13.07;;;2.23;;
23728;SDS011;12045;60.214;24.724;2023-11-21T13:36:24;4.47;;;2.03;;
23728;SDS011;12045;60.214;24.724;2023-11-21T13:38:52;3.50;;;1.83;;
23728;SDS011;12045;60.214;24.724;2023-11-21T13:41:20;2.13;;;1.60;;
23728;SDS011;12045;60.214;24.724;2023-11-21T13:43:57;2.80;;;1.50;;
23728;SDS011;12045;60.214;24.724;2023-11-21T13:46:43;3.20;;;1.90;;
23728;SDS011;12045;60.214;24.724;2023-11-21T13:49:13;3.90;;;2.00;;
23728;SDS011;12045;60.214;24.724;2023-11-21T13:51:45;4.33;;;2.00;;
23728;SDS011;12045;60.214;24.724;2023-11-21T13:54:15;2.47;;;1.70;;
23728;SDS011;12045;60.214;24.724;2023-11-21T13:56:43;2.73;;;1.77;;
23728;SDS011;12045;60.214;24.724;2023-11-21T13:59:15;3.97;;;2.00;;
23728;SDS011;12045;60.214;24.724;2023-11-21T14:01:53;2.30;;;1.70;;
23728;SDS011;12045;60.214;24.724;2023-11-21T14:04:27;2.87;;;1.40;;
23728;SDS011;12045;60.214;24.724;2023-11-21T14:07:00;2.90;;;1.60;;
23728;SDS011;12045;60.214;24.724;2023-11-21T14:09:38;1.70;;;1.03;;
23728;SDS011;12045;60.214;24.724;2023-11-21T14:12:11;3.57;;;1.90;;
23728;SDS011;12045;60.214;24.724;2023-11-21T14:14:40;2.77;;;1.53;;
23728;SDS011;12045;60.214;24.724;2023-11-21T14:17:08;4.63;;;1.80;;
23728;SDS011;12045;60.214;24.724;2023-11-21T14:19:38;1.07;;;0.97;;
23728;SDS011;12045;60.214;24.724;2023-11-21T14:22:11;2.83;;;1.57;;
23728;SDS011;12045;60.214;24.724;2023-11-21T14:24:39;2.07;;;1.20;;
23728;SDS011;12045;60.214;24.724;2023-11-21T14:27:14;4.00;;;1.77;;
23728;SDS011;12045;60.214;24.724;2023-11-21T14:29:45;3.67;;;1.90;;
23728;SDS011;12045;60.214;24.724;2023-11-21T14:32:13;3.27;;;1.80;;
23728;SDS011;12045;60.214;24.724;2023-11-21T14:34:41;3.73;;;2.17;;
23728;SDS011;12045;60.214;24.724;2023-11-21T14:37:14;2.33;;;1.60;;
23728;SDS011;12045;60.214;24.724;2023-11-21T14:39:42;3.70;;;1.97;;
23728;SDS011;12045;60.214;24.724;2023-11-21T14:42:17;4.53;;;2.10;;
23728;SDS011;12045;60.214;24.724;2023-11-21T14:44:51;5.40;;;2.90;;
23728;SDS011;12045;60.214;24.724;2023-11-21T14:47:20;5.60;;;2.27;;
23728;SDS011;12045;60.214;24.724;2023-11-21T14:49:54;4.33;;;1.80;;
23728;SDS011;12045;60.214;24.724;2023-11-21T14:52:25;6.10;;;2.10;;
23728;SDS011;12045;60.214;24.724;2023-11-21T14:55:02;3.97;;;2.00;;
23728;SDS011;12045;60.214;24.724;2023-11-21T14:57:50;3.50;;;2.10;;
23728;SDS011;12045;60.214;24.724;2023-11-21T15:00:19;3.83;;;2.10;;
23728;SDS011;12045;60.214;24.724;2023-11-21T15:03:12;4.30;;;1.53;;